Friday, August 01, 2014
07:55 UTC
  |  Log In   |  Register Free
Airport Search:

Clayton Municipal Airport
(11A)

Clayton Municipal Airport Diagram
No Airport Diagram Available

FAA data valid effective July 24, 2014 until September 18, 2014 (unless otherwise noted).

 
 
 
 
 
 
 
 
 
 
 
 
 
 

Current Aviation Weather for Clayton Municipal Airport (11A)

The most recent METAR observation for KEUF was updated at: 1758 UTC
METAR Summary (Translated METAR)
KEUF
281758Z AUTO 28008KT 10SM FEW040 36/24 A2994 RMK AO2 SLP135 T03560239 10356 20267 58012
KLSF
(24.2 nm NE from KEUF)
281758Z AUTO 28007KT 10SM FEW037 SCT200 33/25 A2993 RMK AO2 SLP135 T03280249 10332 20258 57014
TAF Summary (Translated TAF)
KLSF
(24.2 nm NE from KEUF)
0101/0207 12009KT 9999 BKN040 QNH2996INS BECMG 0106/0107 VRB06KT 4800 BR SCT020 BKN160 QNH2998INS BECMG 0113/0114 04009KT 9999 NSW SCT040 BKN120 QNH2995INS BECMG 0119/0120 33009KT 9000 -SHRA VCTS SCT020CB BKN040 QNH2992INS BECMG 0202/0203 VRB06KT 9999 NSW BKN050 QNH2993INS TX30/0120Z TN21/0108Z
KCSG
(35.3 nm NE from KEUF)
010534Z 0106/0206 05005KT P6SM BKN015 FM011500 06005KT P6SM BKN025 FM011800 04004KT P6SM BKN045 PROB30 0118/0123 4SM -TSRA BR BKN030CB FM012300 05004KT P6SM VCSH SCT025 BKN080
  Airport Weather Conditions for 11A

Current weather conditions are
not available for 11A


The nearest NOAA weather station
is at EUF, (18.6 nm NE from 11A)
  
 Current Weather at EUF
75° F
Fair
Northeast winds at 4.6 mph
EUF NOAA Radar

Pressure: 29.98 in
Humidity: 82%
Wind: Northeast at 4.6 MPH (4 KT)
Dew Point: 69.1°F
Visibility: 10.00 mi


Airport Weather Forecast for 11A

Translated METAR and TAF for KEUF
Translated METAR for KEUF (0749 UTC 01 August 2014)
found at http://aviationweather.gov/adds/metars/
 
METAR text: KEUF 010658Z AUTO 05004KT 10SM CLR 24/21 A2998 RMK AO2 SLP148 T02390206 $
Conditions at: KEUF (EUFAULA , AL, US) observed 0658 UTC 01 August 2014
Temperature: 23.9°C (75°F)
Dewpoint: 20.6°C (69°F) [RH = 82%]
Pressure (altimeter): 29.98 inches Hg (1015.3 mb)
[Sea-level pressure: 1014.8 mb]
Winds: from the NE (50 degrees) at 5 MPH (4 knots; 2.1 m/s)
Visibility: 10 or more miles (16+ km)
Ceiling: at least 12,000 feet AGL
Clouds: sky clear below 12,000 feet AGL
Weather:
SOME DATA ABOVE MAY BE INACCURATE!!!
"$" is an indication the sensor requires maintenance
Translated TAF for KEUF

There is no translated TAF available for this airport

Find All Airport Services Find A Hotel Find A Rental Car Find A Golf Course Find A Restaurant $100 Hamburger



FBO's on the Field
FBO Company Facility Photos Services Transportation Aviation Fuel Prices: Prices include tax
Catering Weather Repair Courtesy Rental Type 100LL JetA JetA+ MOGAS 8087
 
Add another FBO Facility Photos Catering Weather Repair Courtesy Rental Type 100LL JetA JetA+ MOGAS 8087
Services Transportation Aviation Fuel Prices: Prices include tax
There are no FBO's currently reporting fuel at 11A. List your FBO now


GlobalAir.com Airport Resource Center model-print
model-print
model-print
model-print